Airfield :
LOGIN :

Register | Disclaimer

   EN    FR    IT 

 










Legend :    VFR   Marginal VFR   IFR   Intensive IFR   Very Intensive IFR
Visi :
Ceiling :
>= 8 km
>= 3000ft
5 to 8 km
1000 to 3000 ft
1500m to 5 km
500 to 1000 ft
800 to 1500m
200 to 500 ft
< 800m
< 200 ft
Symbols :   Thunderstorms  Fog  Heavy snow  Heavy precipitations  Wind > 20 kt
SIGMETs :     Misc.  Thunderstorms  Icing  Turbulence  Mountain Waves  Volcanic Ashes






- Airport Elevation : 289 ft
- IATA code : ZAD


LDZD - Zadar

CURRENT METAR :
  • 281700Z 12004KT 9999 FEW040 SCT074 10/08 Q1016 NOSIG

EXPIRED METARs :
  • 281630Z 08005KT 9999 FEW040 SCT074 12/08 Q1016 NOSIG
  • 281600Z 09004KT 9999 FEW040 SCT074 12/08 Q1016 BECMG 06012KT
  • 281530Z 06004KT 9999 FEW040 BKN074 12/09 Q1016 NOSIG
  • 281500Z 08001KT 9999 FEW040 BKN070 11/10 Q1017 NOSIG
  • 281430Z VRB01KT 9999 FEW040 BKN070 12/09 Q1017 NOSIG

TAF TAF LDZD
Valid from the 28 at 12:00 until the 29 at 12:00 UTC


281125Z 2812/2912 13007KT 9999 FEW035 SCT050 TX13/2812Z TN08/2906Z
BECMG 2820/2822 06012KT
TEMPO 2900/2910 04015G25KT



MET'MAP, your aeronautical weather chart ! - Copyright ORBIFLY December 2007 - Disclaimer

ORBIFLY MET'MAP TEAM :

Programming & Development : Alexandra Zaïnal
Concept & original design : Baudouin d'Aumeries
Assistance for programming : Marc-Olivier Méhu
Technical & hardware support : Manuel Goepfert

Contact : metmap@orbifly.com




SOURCES & CREDITS :

   NOAA